Time;durP1;ratioP1;P1;durP2;ratioP2;P2;SDS_P1;SDS_P2;PMS_P1;PMS_P2;Temp;Humidity;BMP_temperature;BMP_pressure;BME280_temperature;BME280_humidity;BME280_pressure;Samples;Min_cycle;Max_cycle;Signal;HPM_P1;HPM_P2
2023/07/26 00:01:32;;;;;;;22.40;17.92;;;;;;;;;;4988844;28;20096;-72
2023/07/26 00:03:58;;;;;;;19.48;17.45;;;;;;;;;;4989895;28;20453;-73
2023/07/26 00:06:25;;;;;;;20.00;17.95;;;;;;;;;;4987976;28;20039;-72
2023/07/26 00:08:51;;;;;;;22.15;18.35;;;;;;;;;;4988616;28;20050;-72
2023/07/26 00:11:17;;;;;;;19.15;17.38;;;;;;;;;;4990933;28;20644;-72
2023/07/26 00:13:43;;;;;;;20.15;17.65;;;;;;;;;;4987504;28;20042;-73
2023/07/26 00:16:09;;;;;;;21.08;18.55;;;;;;;;;;4991225;28;20077;-72
2023/07/26 00:18:35;;;;;;;19.85;16.63;;;;;;;;;;4990788;28;20724;-72
2023/07/26 00:21:00;;;;;;;19.92;17.75;;;;;;;;;;4994155;28;20041;-72
2023/07/26 00:23:26;;;;;;;21.13;18.83;;;;;;;;;;4987283;28;20521;-72
2023/07/26 00:25:51;;;;;;;22.23;17.88;;;;;;;;;;4990706;28;20123;-72
2023/07/26 00:28:17;;;;;;;25.17;18.70;;;;;;;;;;4987770;28;20031;-72
2023/07/26 00:30:43;;;;;;;20.80;18.55;;;;;;;;;;4989750;28;20634;-72
2023/07/26 00:33:10;;;;;;;21.55;19.27;;;;;;;;;;4986817;28;20070;-72
2023/07/26 00:35:40;;;;;;;20.90;18.33;;;;;;;;;;4987108;28;20057;-73
2023/07/26 00:38:06;;;;;;;21.77;18.92;;;;;;;;;;4986732;28;20034;-72
2023/07/26 00:40:32;;;;;;;22.63;18.15;;;;;;;;;;4985411;28;20096;-73
2023/07/26 00:42:58;;;;;;;21.73;18.20;;;;;;;;;;4987535;28;20529;-73
2023/07/26 00:45:24;;;;;;;22.63;20.05;;;;;;;;;;4987768;28;20042;-73
2023/07/26 00:47:51;;;;;;;22.15;19.88;;;;;;;;;;4991721;28;20042;-72
2023/07/26 00:50:18;;;;;;;23.88;18.55;;;;;;;;;;4984955;28;20030;-73
2023/07/26 00:52:45;;;;;;;21.35;19.08;;;;;;;;;;4987898;28;20403;-73
2023/07/26 00:55:11;;;;;;;22.50;20.10;;;;;;;;;;4988986;28;20242;-73
2023/07/26 00:57:37;;;;;;;25.58;21.45;;;;;;;;;;4987306;28;20034;-73
2023/07/26 01:00:04;;;;;;;27.73;21.67;;;;;;;;;;4988928;28;20110;-73
2023/07/26 01:02:31;;;;;;;23.60;21.02;;;;;;;;;;4988344;28;20042;-72
2023/07/26 01:04:57;;;;;;;22.33;19.98;;;;;;;;;;4986037;28;20106;-72
2023/07/26 01:07:31;;;;;;;24.90;18.42;;;;;;;;;;4986807;28;20045;-72
2023/07/26 01:10:21;;;;;;;24.30;19.33;;;;;;;;;;4988960;28;20124;-72
2023/07/26 01:12:54;;;;;;;21.10;18.90;;;;;;;;;;4986942;28;20124;-73
2023/07/26 01:15:30;;;;;;;22.27;19.73;;;;;;;;;;4985434;28;20376;-72
2023/07/26 01:18:14;;;;;;;22.30;19.42;;;;;;;;;;4985961;28;20034;-72
2023/07/26 01:20:40;;;;;;;24.80;19.13;;;;;;;;;;4986529;28;20037;-72
2023/07/26 01:23:06;;;;;;;24.17;19.38;;;;;;;;;;4987407;28;20031;-73
2023/07/26 01:25:32;;;;;;;20.58;18.38;;;;;;;;;;4986725;28;20403;-72
2023/07/26 01:27:58;;;;;;;19.92;17.77;;;;;;;;;;4984236;28;20076;-73
2023/07/26 01:30:29;;;;;;;21.77;19.13;;;;;;;;;;4985705;28;20062;-72
2023/07/26 01:32:59;;;;;;;21.33;18.75;;;;;;;;;;4985094;28;20085;-72
2023/07/26 01:35:24;;;;;;;;;;;;;;;;;;4983463;28;20137;-72
2023/07/26 01:37:54;;;;;;;21.65;16.73;;;;;;;;;;4987246;28;20043;-72
2023/07/26 01:40:21;;;;;;;19.75;17.15;;;;;;;;;;4999047;28;20581;-72
2023/07/26 01:42:48;;;;;;;19.60;16.73;;;;;;;;;;4983494;28;20061;-71
2023/07/26 01:45:15;;;;;;;19.58;17.63;;;;;;;;;;4986109;28;20106;-72
2023/07/26 01:47:40;;;;;;;17.88;15.40;;;;;;;;;;4985757;28;20106;-72
2023/07/26 01:50:07;;;;;;;17.35;15.63;;;;;;;;;;4985169;28;20159;-72
2023/07/26 01:52:33;;;;;;;20.63;17.27;;;;;;;;;;4984451;28;20121;-72
2023/07/26 01:54:59;;;;;;;20.20;17.65;;;;;;;;;;4977502;28;20483;-72
2023/07/26 01:57:25;;;;;;;17.27;15.52;;;;;;;;;;4988381;28;20105;-72
2023/07/26 01:59:52;;;;;;;16.90;15.30;;;;;;;;;;4984913;28;20034;-72
2023/07/26 02:02:18;;;;;;;19.33;15.93;;;;;;;;;;4986798;28;20037;-72
2023/07/26 02:04:44;;;;;;;18.40;16.50;;;;;;;;;;4984966;28;20491;-72
2023/07/26 02:07:10;;;;;;;17.92;16.10;;;;;;;;;;4985938;28;20034;-72
2023/07/26 02:09:36;;;;;;;18.10;16.40;;;;;;;;;;4986185;28;20092;-72
2023/07/26 02:12:03;;;;;;;17.30;15.25;;;;;;;;;;4985449;28;20449;-72
2023/07/26 02:14:29;;;;;;;18.73;15.05;;;;;;;;;;4984523;28;20057;-72
2023/07/26 02:16:55;;;;;;;18.75;15.63;;;;;;;;;;4985722;28;20128;-72
2023/07/26 02:19:20;;;;;;;24.48;16.52;;;;;;;;;;4982875;28;20038;-72
2023/07/26 02:21:46;;;;;;;18.33;14.68;;;;;;;;;;4985221;28;20383;-72
2023/07/26 02:24:12;;;;;;;17.17;15.63;;;;;;;;;;4981070;28;20038;-72
2023/07/26 02:26:37;;;;;;;17.50;15.80;;;;;;;;;;4986781;28;20518;-72
2023/07/26 02:29:03;;;;;;;17.58;15.70;;;;;;;;;;4983636;28;20529;-72
2023/07/26 02:31:30;;;;;;;17.83;16.02;;;;;;;;;;4984859;28;20038;-72
2023/07/26 02:33:56;;;;;;;18.67;15.57;;;;;;;;;;4979305;28;20455;-72
2023/07/26 02:36:21;;;;;;;17.25;15.48;;;;;;;;;;4989500;28;20057;-72
2023/07/26 02:38:47;;;;;;;22.10;16.67;;;;;;;;;;4989312;28;20030;-72
2023/07/26 02:41:13;;;;;;;18.17;16.35;;;;;;;;;;4986894;28;20598;-72
2023/07/26 02:43:39;;;;;;;17.65;15.95;;;;;;;;;;4988990;28;20046;-72
2023/07/26 02:46:04;;;;;;;18.83;16.20;;;;;;;;;;4987631;28;20502;-72
2023/07/26 02:48:30;;;;;;;19.52;15.52;;;;;;;;;;4984399;28;20046;-72
2023/07/26 02:50:55;;;;;;;18.25;15.90;;;;;;;;;;5002076;28;20070;-72
2023/07/26 02:53:21;;;;;;;17.23;15.57;;;;;;;;;;4990272;28;20048;-71
2023/07/26 02:55:46;;;;;;;17.55;15.25;;;;;;;;;;4987717;28;20104;-72
2023/07/26 02:58:12;;;;;;;21.02;15.85;;;;;;;;;;4986513;28;20633;-72
2023/07/26 03:00:38;;;;;;;17.25;15.65;;;;;;;;;;4988075;28;20045;-72
2023/07/26 03:03:03;;;;;;;20.38;15.10;;;;;;;;;;4989295;28;20037;-71
2023/07/26 03:05:30;;;;;;;17.70;16.08;;;;;;;;;;4985097;28;20043;-71
2023/07/26 03:07:56;;;;;;;18.95;16.63;;;;;;;;;;4984752;28;20049;-71
2023/07/26 03:10:22;;;;;;;22.02;16.70;;;;;;;;;;4984393;28;20070;-71
2023/07/26 03:12:47;;;;;;;17.65;15.77;;;;;;;;;;4986909;28;20145;-71
2023/07/26 03:15:13;;;;;;;20.45;16.90;;;;;;;;;;4984645;28;20034;-71
2023/07/26 03:17:38;;;;;;;18.40;15.88;;;;;;;;;;4986038;28;20422;-71
2023/07/26 03:20:05;;;;;;;19.75;15.38;;;;;;;;;;4983434;28;20494;-71
2023/07/26 03:22:31;;;;;;;17.35;15.43;;;;;;;;;;5000341;28;20105;-71
2023/07/26 03:24:57;;;;;;;17.13;15.10;;;;;;;;;;4985204;28;20109;-71
2023/07/26 03:27:22;;;;;;;16.92;14.75;;;;;;;;;;4984817;28;20070;-71
2023/07/26 03:29:48;;;;;;;17.05;15.40;;;;;;;;;;4986162;28;20052;-71
2023/07/26 03:32:14;;;;;;;20.65;15.52;;;;;;;;;;4984359;28;20034;-72
2023/07/26 03:34:40;;;;;;;21.98;15.90;;;;;;;;;;4981199;28;20056;-71
2023/07/26 03:37:07;;;;;;;17.50;15.75;;;;;;;;;;4984489;28;20049;-71
2023/07/26 03:39:32;;;;;;;18.77;16.92;;;;;;;;;;4984151;28;20064;-71
2023/07/26 03:41:58;;;;;;;18.90;15.90;;;;;;;;;;4985616;28;20430;-71
2023/07/26 03:44:23;;;;;;;18.25;16.35;;;;;;;;;;4986630;28;20556;-72
2023/07/26 03:46:49;;;;;;;19.17;17.17;;;;;;;;;;4984473;28;20081;-71
2023/07/26 03:49:15;;;;;;;17.55;15.90;;;;;;;;;;4986126;28;20043;-71
2023/07/26 03:51:41;;;;;;;17.20;15.50;;;;;;;;;;4985290;28;20113;-71
2023/07/26 03:54:07;;;;;;;17.45;15.50;;;;;;;;;;4982612;28;20522;-71
2023/07/26 03:56:32;;;;;;;17.40;15.65;;;;;;;;;;4999567;28;20038;-71
2023/07/26 03:58:58;;;;;;;18.80;16.08;;;;;;;;;;4983531;28;20376;-71
2023/07/26 04:01:23;;;;;;;17.20;15.45;;;;;;;;;;4985694;28;20041;-71
2023/07/26 04:03:49;;;;;;;21.55;15.48;;;;;;;;;;4986032;28;20088;-71
2023/07/26 04:06:15;;;;;;;18.17;16.38;;;;;;;;;;4987132;28;20038;-71
2023/07/26 04:08:40;;;;;;;18.05;15.27;;;;;;;;;;4987468;28;20043;-71
2023/07/26 04:11:07;;;;;;;19.45;15.30;;;;;;;;;;4985750;28;20133;-71
2023/07/26 04:13:33;;;;;;;15.80;14.30;;;;;;;;;;4986035;28;20398;-71
2023/07/26 04:15:59;;;;;;;15.95;14.43;;;;;;;;;;4987635;28;20399;-71
2023/07/26 04:18:25;;;;;;;16.02;14.32;;;;;;;;;;4987087;28;20034;-71
2023/07/26 04:20:51;;;;;;;15.23;13.68;;;;;;;;;;4988686;28;20375;-72
2023/07/26 04:23:16;;;;;;;16.17;14.55;;;;;;;;;;4987602;28;20038;-72
2023/07/26 04:25:49;;;;;;;15.48;13.90;;;;;;;;;;4992516;28;20494;-72
2023/07/26 04:28:15;;;;;;;16.25;14.57;;;;;;;;;;4985686;28;20107;-72
2023/07/26 04:30:41;;;;;;;16.23;14.52;;;;;;;;;;4986802;28;20042;-72
2023/07/26 04:33:06;;;;;;;14.88;13.52;;;;;;;;;;4986931;28;20394;-72
2023/07/26 04:35:32;;;;;;;15.30;13.77;;;;;;;;;;4984451;28;20038;-71
2023/07/26 04:37:58;;;;;;;15.00;13.25;;;;;;;;;;4987218;28;20042;-72
2023/07/26 04:40:23;;;;;;;14.60;13.30;;;;;;;;;;4984562;28;20398;-72
2023/07/26 04:42:49;;;;;;;14.55;13.15;;;;;;;;;;4985153;28;20478;-72
2023/07/26 04:45:14;;;;;;;14.52;13.18;;;;;;;;;;4987725;28;20062;-72
2023/07/26 04:47:40;;;;;;;15.98;14.38;;;;;;;;;;4987208;28;20047;-72
2023/07/26 04:50:05;;;;;;;13.60;12.40;;;;;;;;;;4987474;28;20034;-72
2023/07/26 04:52:33;;;;;;;14.00;12.88;;;;;;;;;;4987082;28;20038;-72
2023/07/26 04:54:59;;;;;;;14.05;12.80;;;;;;;;;;4987368;28;20529;-72
2023/07/26 04:57:24;;;;;;;14.98;13.52;;;;;;;;;;4987255;28;20053;-72
2023/07/26 04:59:50;;;;;;;14.55;13.05;;;;;;;;;;4987546;28;20034;-71
2023/07/26 05:02:15;;;;;;;14.57;13.27;;;;;;;;;;4985423;28;20034;-71
2023/07/26 05:04:41;;;;;;;14.30;13.00;;;;;;;;;;4987913;28;20042;-73
2023/07/26 05:07:06;;;;;;;13.45;12.45;;;;;;;;;;4987119;28;20034;-73
2023/07/26 05:09:32;;;;;;;14.05;12.77;;;;;;;;;;4985932;28;20030;-71
2023/07/26 05:11:57;;;;;;;14.20;13.07;;;;;;;;;;4985400;28;20499;-72
2023/07/26 05:14:23;;;;;;;14.90;13.57;;;;;;;;;;4986310;28;20042;-72
2023/07/26 05:16:48;;;;;;;14.10;12.98;;;;;;;;;;4989834;28;20120;-72
2023/07/26 05:19:14;;;;;;;14.73;13.45;;;;;;;;;;4984963;28;20034;-71
2023/07/26 05:21:41;;;;;;;14.30;13.20;;;;;;;;;;4985184;28;20038;-71
2023/07/26 05:24:06;;;;;;;13.85;12.50;;;;;;;;;;4986436;28;20037;-71
2023/07/26 05:26:32;;;;;;;15.52;13.10;;;;;;;;;;4986110;28;20049;-71
2023/07/26 05:28:57;;;;;;;14.52;13.27;;;;;;;;;;4984696;28;20045;-72
2023/07/26 05:31:23;;;;;;;14.52;13.40;;;;;;;;;;4986211;28;20456;-72
2023/07/26 05:33:48;;;;;;;15.25;13.77;;;;;;;;;;4984723;28;20034;-72
2023/07/26 05:36:14;;;;;;;14.40;13.20;;;;;;;;;;4986167;28;20125;-71
2023/07/26 05:38:39;;;;;;;14.27;13.13;;;;;;;;;;4984863;28;20065;-72
2023/07/26 05:41:05;;;;;;;17.90;14.45;;;;;;;;;;4983661;28;20042;-71
2023/07/26 05:43:31;;;;;;;16.00;14.40;;;;;;;;;;4985972;28;20037;-71
2023/07/26 05:45:57;;;;;;;14.73;13.38;;;;;;;;;;4984799;28;20096;-71
2023/07/26 05:48:22;;;;;;;14.85;13.55;;;;;;;;;;4983669;28;20553;-73
2023/07/26 05:50:48;;;;;;;15.23;13.90;;;;;;;;;;4985972;28;20030;-71
2023/07/26 05:53:14;;;;;;;15.18;13.55;;;;;;;;;;4985782;28;20584;-71
2023/07/26 05:55:39;;;;;;;15.55;14.15;;;;;;;;;;4985052;28;20037;-72
2023/07/26 05:58:05;;;;;;;16.00;14.25;;;;;;;;;;4983561;28;20034;-71
2023/07/26 06:00:31;;;;;;;15.10;13.60;;;;;;;;;;4985757;28;20044;-72
2023/07/26 06:02:57;;;;;;;15.00;13.80;;;;;;;;;;4985958;28;20136;-72
2023/07/26 06:05:23;;;;;;;14.50;13.20;;;;;;;;;;4984882;28;20176;-71
2023/07/26 06:07:49;;;;;;;13.30;12.20;;;;;;;;;;4983390;28;20407;-72
2023/07/26 06:10:15;;;;;;;14.30;12.90;;;;;;;;;;4985389;28;20046;-71
2023/07/26 06:12:41;;;;;;;13.20;12.20;;;;;;;;;;4982576;28;20034;-72
2023/07/26 06:15:07;;;;;;;14.20;13.10;;;;;;;;;;4984755;28;20604;-72
2023/07/26 06:17:33;;;;;;;14.77;13.45;;;;;;;;;;4985670;28;20491;-72
2023/07/26 06:19:59;;;;;;;16.67;13.57;;;;;;;;;;4985616;28;20042;-71
2023/07/26 06:22:24;;;;;;;13.70;12.43;;;;;;;;;;4985477;28;20449;-72
2023/07/26 06:24:50;;;;;;;13.20;12.02;;;;;;;;;;4984709;28;20042;-71
2023/07/26 06:27:22;;;;;;;12.63;11.73;;;;;;;;;;4985527;28;20045;-72
2023/07/26 06:29:48;;;;;;;13.73;12.50;;;;;;;;;;4985502;28;20065;-71
2023/07/26 06:32:14;;;;;;;13.77;12.55;;;;;;;;;;4985770;28;20129;-71
2023/07/26 06:34:39;;;;;;;13.52;12.15;;;;;;;;;;4984418;28;20444;-72
2023/07/26 06:37:05;;;;;;;12.52;11.63;;;;;;;;;;4985293;28;20034;-72
2023/07/26 06:39:31;;;;;;;12.85;11.60;;;;;;;;;;4985319;28;20030;-73
2023/07/26 06:41:56;;;;;;;13.32;12.23;;;;;;;;;;4985588;28;20034;-71
2023/07/26 06:44:22;;;;;;;13.63;12.35;;;;;;;;;;4984824;28;20091;-71
2023/07/26 06:46:48;;;;;;;12.18;11.02;;;;;;;;;;4985688;28;20038;-71
2023/07/26 06:49:13;;;;;;;12.15;11.15;;;;;;;;;;4985287;28;20085;-71
2023/07/26 06:51:39;;;;;;;13.20;12.05;;;;;;;;;;4984985;28;20108;-72
2023/07/26 06:54:05;;;;;;;13.00;11.88;;;;;;;;;;4985967;28;20046;-71
2023/07/26 06:56:30;;;;;;;13.15;12.15;;;;;;;;;;4985088;28;20065;-72
2023/07/26 06:58:56;;;;;;;12.98;11.98;;;;;;;;;;4984801;28;20065;-72
2023/07/26 07:01:21;;;;;;;12.73;11.80;;;;;;;;;;4985106;28;20077;-72
2023/07/26 07:03:47;;;;;;;12.38;11.35;;;;;;;;;;4983276;28;20038;-72
2023/07/26 07:06:15;;;;;;;12.23;11.23;;;;;;;;;;4985296;28;20053;-72
2023/07/26 07:08:40;;;;;;;12.82;11.35;;;;;;;;;;4984971;28;20117;-72
2023/07/26 07:11:06;;;;;;;11.73;10.93;;;;;;;;;;4983883;28;20109;-72
2023/07/26 07:13:36;;;;;;;12.50;11.27;;;;;;;;;;4984856;28;20042;-72
2023/07/26 07:16:05;;;;;;;12.38;11.43;;;;;;;;;;4984905;28;20169;-72
2023/07/26 07:18:31;;;;;;;12.55;11.52;;;;;;;;;;4986634;28;20969;-72
2023/07/26 07:20:58;;;;;;;12.38;11.20;;;;;;;;;;4987344;28;20038;-71
2023/07/26 07:23:28;;;;;;;13.07;11.98;;;;;;;;;;4986898;28;20927;-70
2023/07/26 07:25:54;;;;;;;13.20;12.15;;;;;;;;;;4988598;28;20034;-71
2023/07/26 07:28:19;;;;;;;13.43;12.40;;;;;;;;;;4987122;28;20626;-72
2023/07/26 07:30:46;;;;;;;13.57;12.38;;;;;;;;;;4988925;28;20057;-71
2023/07/26 07:33:11;;;;;;;13.70;12.50;;;;;;;;;;4988313;28;20037;-72
2023/07/26 07:35:38;;;;;;;12.52;11.52;;;;;;;;;;4987967;28;20046;-72
2023/07/26 07:38:04;;;;;;;12.18;11.18;;;;;;;;;;4986525;28;20038;-72
2023/07/26 07:40:29;;;;;;;11.98;10.88;;;;;;;;;;4987913;28;20038;-72
2023/07/26 07:42:55;;;;;;;12.85;11.77;;;;;;;;;;4987979;28;20121;-72
2023/07/26 07:45:20;;;;;;;13.02;11.82;;;;;;;;;;4988056;28;20049;-73
2023/07/26 07:47:46;;;;;;;12.45;11.27;;;;;;;;;;4986690;28;20034;-72
2023/07/26 07:50:11;;;;;;;12.60;11.38;;;;;;;;;;4987470;28;20054;-72
2023/07/26 07:52:37;;;;;;;13.10;11.27;;;;;;;;;;4987508;28;20034;-72
2023/07/26 07:55:03;;;;;;;13.02;11.82;;;;;;;;;;4986767;28;20030;-71
2023/07/26 07:57:28;;;;;;;12.40;11.32;;;;;;;;;;4986998;28;20621;-71
2023/07/26 07:59:54;;;;;;;12.18;11.20;;;;;;;;;;4989301;28;20034;-72
2023/07/26 08:02:19;;;;;;;12.38;11.15;;;;;;;;;;4987679;28;20061;-72
2023/07/26 08:04:45;;;;;;;14.43;12.55;;;;;;;;;;4984984;28;20068;-72
2023/07/26 08:07:10;;;;;;;12.63;11.52;;;;;;;;;;4986019;28;20076;-72
2023/07/26 08:09:36;;;;;;;12.23;11.18;;;;;;;;;;4987045;28;20041;-72
2023/07/26 08:12:02;;;;;;;14.75;13.38;;;;;;;;;;4987229;28;20085;-71
2023/07/26 08:14:28;;;;;;;12.30;11.30;;;;;;;;;;4986084;28;20498;-73
2023/07/26 08:16:53;;;;;;;12.90;12.00;;;;;;;;;;4987254;28;20045;-72
2023/07/26 08:19:19;;;;;;;13.45;11.98;;;;;;;;;;4984394;28;20121;-71
2023/07/26 08:21:45;;;;;;;12.73;11.55;;;;;;;;;;4983888;28;20104;-72
2023/07/26 08:24:10;;;;;;;13.05;11.80;;;;;;;;;;4985553;28;20108;-71
2023/07/26 08:26:36;;;;;;;11.70;10.90;;;;;;;;;;4983583;28;20062;-72
2023/07/26 08:29:01;;;;;;;12.63;11.63;;;;;;;;;;4984370;28;20056;-72
2023/07/26 08:31:27;;;;;;;12.02;10.93;;;;;;;;;;4985801;28;20034;-72
2023/07/26 08:33:52;;;;;;;12.63;11.52;;;;;;;;;;4985287;28;20034;-71
2023/07/26 08:36:18;;;;;;;12.68;11.65;;;;;;;;;;4984606;28;20038;-72
2023/07/26 08:38:44;;;;;;;12.45;11.65;;;;;;;;;;4983568;28;20030;-72
2023/07/26 08:41:10;;;;;;;11.38;10.55;;;;;;;;;;4983469;28;20117;-72
2023/07/26 08:43:39;;;;;;;11.23;10.20;;;;;;;;;;4984927;28;20040;-72
2023/07/26 08:46:09;;;;;;;11.18;10.48;;;;;;;;;;4985268;28;20038;-71
2023/07/26 08:48:37;;;;;;;10.23;9.55;;;;;;;;;;4986749;28;20046;-71
2023/07/26 08:51:02;;;;;;;10.25;9.30;;;;;;;;;;4986342;28;20430;-71
2023/07/26 08:53:29;;;;;;;9.32;8.73;;;;;;;;;;4985018;28;20043;-72
2023/07/26 08:55:55;;;;;;;9.73;8.93;;;;;;;;;;4984143;28;20048;-72
2023/07/26 08:58:21;;;;;;;9.73;9.00;;;;;;;;;;4983462;28;20026;-71
2023/07/26 09:00:47;;;;;;;9.70;8.95;;;;;;;;;;4985355;28;20034;-71
2023/07/26 09:03:13;;;;;;;9.13;8.52;;;;;;;;;;4983814;28;20042;-71
2023/07/26 09:05:39;;;;;;;9.43;8.65;;;;;;;;;;4984536;28;20054;-71
2023/07/26 09:08:05;;;;;;;9.60;9.00;;;;;;;;;;4984828;28;20061;-71
2023/07/26 09:10:31;;;;;;;9.57;8.80;;;;;;;;;;4984769;28;20042;-74
2023/07/26 09:13:08;;;;;;;9.40;8.80;;;;;;;;;;4984273;28;20038;-71
2023/07/26 09:15:36;;;;;;;9.50;8.90;;;;;;;;;;4984947;28;20038;-72
2023/07/26 09:18:03;;;;;;;9.48;8.80;;;;;;;;;;4984643;28;20049;-72
2023/07/26 09:20:30;;;;;;;9.00;8.50;;;;;;;;;;4984695;28;20034;-71
2023/07/26 09:23:05;;;;;;;8.98;8.30;;;;;;;;;;4983613;28;20041;-72
2023/07/26 09:25:39;;;;;;;8.27;7.78;;;;;;;;;;4984687;28;20122;-71
2023/07/26 09:28:06;;;;;;;8.30;7.80;;;;;;;;;;4982946;28;20603;-71
2023/07/26 09:30:36;;;;;;;8.35;7.85;;;;;;;;;;4984033;28;20030;-71
2023/07/26 09:33:02;;;;;;;8.05;7.65;;;;;;;;;;4984296;28;20042;-71
2023/07/26 09:35:31;;;;;;;8.40;7.90;;;;;;;;;;4984567;28;20038;-71
2023/07/26 09:37:57;;;;;;;9.32;8.50;;;;;;;;;;4981763;28;20023;-71
2023/07/26 09:40:32;;;;;;;9.07;8.52;;;;;;;;;;4984056;28;20609;-71
2023/07/26 09:42:58;;;;;;;8.60;8.10;;;;;;;;;;4985638;28;20736;-72
2023/07/26 09:45:24;;;;;;;9.15;8.48;;;;;;;;;;4984290;28;20696;-73
2023/07/26 09:48:03;;;;;;;8.65;8.07;;;;;;;;;;4983081;28;20398;-71
2023/07/26 09:50:30;;;;;;;9.02;8.32;;;;;;;;;;4983873;28;20085;-71
2023/07/26 09:52:56;;;;;;;8.80;8.30;;;;;;;;;;4983146;28;20521;-71
2023/07/26 09:55:26;;;;;;;8.77;8.27;;;;;;;;;;4982756;28;20034;-72
2023/07/26 09:57:53;;;;;;;9.20;8.60;;;;;;;;;;4982713;28;20034;-72
2023/07/26 10:00:21;;;;;;;9.00;8.40;;;;;;;;;;4983846;28;20526;-72
2023/07/26 10:02:59;;;;;;;9.13;8.40;;;;;;;;;;4984057;28;20554;-72
2023/07/26 10:05:26;;;;;;;8.77;8.23;;;;;;;;;;4982413;28;20042;-72
2023/07/26 10:07:52;;;;;;;9.27;8.77;;;;;;;;;;4982336;28;20045;-73
2023/07/26 10:10:20;;;;;;;9.35;8.60;;;;;;;;;;4981895;28;20035;-72
2023/07/26 10:12:46;;;;;;;9.20;8.70;;;;;;;;;;4983032;28;20042;-71
2023/07/26 10:15:13;;;;;;;9.27;8.68;;;;;;;;;;4983083;28;20134;-72
2023/07/26 10:17:40;;;;;;;9.20;8.65;;;;;;;;;;4983994;28;20076;-72
2023/07/26 10:20:09;;;;;;;8.80;8.30;;;;;;;;;;4984791;28;20034;-72
2023/07/26 10:22:37;;;;;;;8.70;8.18;;;;;;;;;;4983698;28;20053;-72
2023/07/26 10:25:03;;;;;;;9.30;8.80;;;;;;;;;;4984099;28;20130;-73
2023/07/26 10:27:29;;;;;;;9.50;8.90;;;;;;;;;;4979610;28;20089;-73
2023/07/26 10:29:55;;;;;;;9.70;9.15;;;;;;;;;;4983885;28;20459;-71
2023/07/26 10:32:21;;;;;;;9.18;8.65;;;;;;;;;;4983628;28;20524;-71
2023/07/26 10:34:54;;;;;;;9.32;8.65;;;;;;;;;;4983504;28;20077;-71
2023/07/26 10:37:20;;;;;;;9.32;8.70;;;;;;;;;;4984324;28;20041;-71
2023/07/26 10:39:46;;;;;;;8.52;7.93;;;;;;;;;;4984759;28;20123;-71
2023/07/26 10:42:29;;;;;;;8.88;8.27;;;;;;;;;;4986705;28;20037;-71
2023/07/26 10:44:57;;;;;;;8.55;8.05;;;;;;;;;;4987924;28;20107;-71
2023/07/26 10:47:23;;;;;;;9.02;8.52;;;;;;;;;;4985062;28;20157;-70
2023/07/26 10:49:49;;;;;;;8.70;8.10;;;;;;;;;;4985183;28;20129;-70
2023/07/26 10:52:15;;;;;;;8.15;7.65;;;;;;;;;;4985633;28;20434;-71
2023/07/26 10:54:44;;;;;;;8.30;7.80;;;;;;;;;;4985791;28;20030;-71
2023/07/26 10:57:31;;;;;;;8.95;8.35;;;;;;;;;;4983887;28;20080;-71
2023/07/26 11:00:06;;;;;;;8.63;8.13;;;;;;;;;;4985459;28;20034;-71
2023/07/26 11:02:45;;;;;;;9.07;8.38;;;;;;;;;;4987294;28;20560;-71
2023/07/26 11:05:16;;;;;;;9.63;8.90;;;;;;;;;;4986258;28;20049;-72
2023/07/26 11:07:48;;;;;;;9.75;9.10;;;;;;;;;;4983464;28;20470;-71
2023/07/26 11:10:28;;;;;;;8.98;8.48;;;;;;;;;;4987089;28;20661;-72
2023/07/26 11:13:15;;;;;;;9.68;8.98;;;;;;;;;;4982954;28;20046;-71
2023/07/26 11:15:49;;;;;;;8.68;8.07;;;;;;;;;;4985983;28;20494;-72
2023/07/26 11:18:16;;;;;;;8.90;8.30;;;;;;;;;;4984020;28;20027;-72
2023/07/26 11:20:48;;;;;;;8.57;8.07;;;;;;;;;;4985478;28;20585;-72
2023/07/26 11:23:19;;;;;;;9.25;8.68;;;;;;;;;;4981424;28;20050;-72
2023/07/26 11:25:49;;;;;;;9.38;8.63;;;;;;;;;;4986336;28;20030;-71
2023/07/26 11:28:15;;;;;;;11.05;9.30;;;;;;;;;;4986181;28;20116;-71
2023/07/26 11:30:49;;;;;;;9.32;8.75;;;;;;;;;;4984115;28;20038;-72
2023/07/26 11:33:38;;;;;;;9.60;9.00;;;;;;;;;;4985405;28;20042;-71
2023/07/26 11:36:07;;;;;;;9.82;9.13;;;;;;;;;;4985871;28;20070;-73
2023/07/26 11:38:33;;;;;;;9.25;8.65;;;;;;;;;;4985863;28;20046;-71
2023/07/26 11:40:59;;;;;;;9.90;9.20;;;;;;;;;;4984388;28;20038;-72
2023/07/26 11:43:26;;;;;;;10.32;9.57;;;;;;;;;;4986208;28;20044;-72
2023/07/26 11:45:52;;;;;;;10.30;9.30;;;;;;;;;;4987743;28;20030;-72
2023/07/26 11:48:18;;;;;;;10.27;9.50;;;;;;;;;;4986757;28;20042;-73
2023/07/26 11:50:44;;;;;;;10.07;9.18;;;;;;;;;;4987890;28;20066;-73
2023/07/26 11:53:12;;;;;;;10.30;9.60;;;;;;;;;;4985083;28;20505;-72
2023/07/26 11:55:41;;;;;;;10.75;10.00;;;;;;;;;;4987918;28;20142;-72
2023/07/26 11:58:10;;;;;;;10.73;9.75;;;;;;;;;;4986803;28;20490;-72
2023/07/26 12:00:38;;;;;;;10.32;9.63;;;;;;;;;;4986519;28;20391;-71
2023/07/26 12:03:05;;;;;;;10.70;9.90;;;;;;;;;;4988252;28;20073;-72
2023/07/26 12:05:31;;;;;;;10.18;9.38;;;;;;;;;;4987381;28;20121;-72
2023/07/26 12:07:59;;;;;;;10.10;9.40;;;;;;;;;;4986748;28;20042;-72
2023/07/26 12:10:29;;;;;;;9.93;9.27;;;;;;;;;;4987851;28;20117;-73
2023/07/26 12:12:56;;;;;;;10.05;9.43;;;;;;;;;;4988109;28;20045;-72
2023/07/26 12:15:23;;;;;;;9.73;9.02;;;;;;;;;;4988012;28;20088;-72
2023/07/26 12:18:02;;;;;;;10.43;9.15;;;;;;;;;;4986901;28;20509;-72
2023/07/26 12:20:32;;;;;;;9.98;9.27;;;;;;;;;;4986364;28;20038;-72
2023/07/26 12:23:03;;;;;;;10.63;9.82;;;;;;;;;;4985207;28;20041;-73
2023/07/26 12:25:34;;;;;;;10.20;9.50;;;;;;;;;;4986291;28;20034;-72
2023/07/26 12:28:00;;;;;;;10.32;9.63;;;;;;;;;;4986442;28;20038;-72
2023/07/26 12:30:27;;;;;;;10.13;9.52;;;;;;;;;;4986243;28;20593;-71
2023/07/26 12:33:15;;;;;;;9.90;9.23;;;;;;;;;;4986220;28;20042;-71
2023/07/26 12:35:46;;;;;;;10.27;9.57;;;;;;;;;;4989665;28;20160;-71
2023/07/26 12:38:17;;;;;;;10.20;9.60;;;;;;;;;;4984052;28;20406;-72
2023/07/26 12:40:44;;;;;;;10.60;9.90;;;;;;;;;;4985676;28;20100;-71
2023/07/26 12:43:29;;;;;;;11.68;10.50;;;;;;;;;;4988759;28;20041;-72
2023/07/26 12:46:02;;;;;;;10.57;9.88;;;;;;;;;;4981984;28;20030;-72
2023/07/26 12:48:30;;;;;;;10.60;9.80;;;;;;;;;;4982349;28;20474;-72
2023/07/26 12:50:56;;;;;;;10.18;9.48;;;;;;;;;;4984132;28;20081;-72
2023/07/26 12:53:23;;;;;;;10.02;9.32;;;;;;;;;;4983578;28;20696;-72
2023/07/26 12:55:50;;;;;;;10.20;9.48;;;;;;;;;;4983528;28;20479;-72
2023/07/26 12:58:15;;;;;;;9.60;9.00;;;;;;;;;;4981853;28;20030;-72
2023/07/26 13:00:42;;;;;;;9.85;8.95;;;;;;;;;;4983948;28;20468;-72
2023/07/26 13:03:08;;;;;;;9.38;8.75;;;;;;;;;;4983846;28;20038;-73
2023/07/26 13:05:34;;;;;;;9.52;8.90;;;;;;;;;;4983406;28;20161;-72
2023/07/26 13:08:00;;;;;;;9.95;9.13;;;;;;;;;;4980280;28;20113;-71
2023/07/26 13:10:27;;;;;;;10.43;9.52;;;;;;;;;;4982619;28;20109;-73
2023/07/26 13:12:53;;;;;;;11.18;10.32;;;;;;;;;;4984023;28;20034;-72
2023/07/26 13:15:19;;;;;;;11.10;10.20;;;;;;;;;;4981584;28;20070;-72
2023/07/26 13:17:46;;;;;;;11.00;10.20;;;;;;;;;;4979987;28;20042;-73
2023/07/26 13:20:12;;;;;;;10.43;9.65;;;;;;;;;;4983308;28;20074;-73
2023/07/26 13:22:38;;;;;;;11.10;10.30;;;;;;;;;;4983315;28;20041;-72
2023/07/26 13:25:05;;;;;;;10.45;9.63;;;;;;;;;;4982399;28;20053;-72
2023/07/26 13:27:30;;;;;;;10.55;9.63;;;;;;;;;;4983785;28;20042;-72
2023/07/26 13:29:56;;;;;;;11.30;10.32;;;;;;;;;;4983045;28;20110;-73
2023/07/26 13:32:22;;;;;;;10.93;9.82;;;;;;;;;;4983064;28;20038;-72
2023/07/26 13:34:48;;;;;;;10.65;9.95;;;;;;;;;;4981490;28;20324;-72
2023/07/26 13:37:14;;;;;;;10.90;10.00;;;;;;;;;;4984299;28;20165;-72
2023/07/26 13:39:39;;;;;;;11.00;10.30;;;;;;;;;;4982636;28;20030;-72
2023/07/26 13:42:05;;;;;;;10.45;9.65;;;;;;;;;;4983829;28;20041;-72
2023/07/26 13:44:31;;;;;;;10.15;9.45;;;;;;;;;;4981411;28;20120;-72
2023/07/26 13:46:56;;;;;;;9.57;8.88;;;;;;;;;;4983122;28;20076;-73
2023/07/26 13:49:22;;;;;;;10.40;9.57;;;;;;;;;;4982934;28;20105;-73
2023/07/26 13:51:48;;;;;;;10.23;9.43;;;;;;;;;;4982447;28;20129;-72
2023/07/26 13:54:13;;;;;;;10.80;10.00;;;;;;;;;;4983178;28;20077;-72
2023/07/26 13:56:40;;;;;;;10.32;9.57;;;;;;;;;;4983780;28;20117;-72
2023/07/26 13:59:05;;;;;;;10.05;9.35;;;;;;;;;;4983541;28;20529;-73
2023/07/26 14:01:31;;;;;;;10.05;9.25;;;;;;;;;;4982375;28;20036;-73
2023/07/26 14:03:58;;;;;;;10.25;9.45;;;;;;;;;;4984078;28;20050;-73
2023/07/26 14:06:28;;;;;;;9.82;9.13;;;;;;;;;;4982010;28;20113;-73
2023/07/26 14:08:54;;;;;;;9.55;8.70;;;;;;;;;;4983206;28;20046;-72
2023/07/26 14:11:19;;;;;;;9.90;9.20;;;;;;;;;;4981124;28;20038;-73
2023/07/26 14:13:45;;;;;;;9.93;9.05;;;;;;;;;;4983971;28;20048;-72
2023/07/26 14:16:11;;;;;;;10.45;9.55;;;;;;;;;;4982952;28;20046;-72
2023/07/26 14:18:36;;;;;;;10.20;9.50;;;;;;;;;;4982365;28;20034;-73
2023/07/26 14:21:02;;;;;;;9.52;8.93;;;;;;;;;;4981269;28;20050;-73
2023/07/26 14:23:32;;;;;;;9.88;9.20;;;;;;;;;;4982824;28;20053;-72
2023/07/26 14:25:59;;;;;;;10.57;9.77;;;;;;;;;;4981880;28;20111;-72